createdAt,value
2022-12-23T00:01:45.757Z,4.27
2022-12-23T00:04:18.259Z,4.26
2022-12-23T00:06:50.817Z,4.27
2022-12-23T00:09:23.499Z,4.29
2022-12-23T00:12:09.734Z,4.31
2022-12-23T00:15:00.275Z,4.33
2022-12-23T00:17:31.078Z,4.35
2022-12-23T00:20:07.316Z,4.35
2022-12-23T00:22:57.987Z,4.34
2022-12-23T00:25:41.901Z,4.32
2022-12-23T00:28:20.245Z,4.31
2022-12-23T00:30:54.864Z,4.30
2022-12-23T00:33:29.746Z,4.31
2022-12-23T00:36:02.302Z,4.32
2022-12-23T00:39:03.729Z,4.29
2022-12-23T00:42:05.528Z,4.28
2022-12-23T00:44:40.683Z,4.28
2022-12-23T00:47:33.434Z,4.30
2022-12-23T00:50:06.424Z,4.34
2022-12-23T00:52:38.954Z,4.37
2022-12-23T00:55:12.301Z,4.40
2022-12-23T00:57:44.936Z,4.41
2022-12-23T01:00:18.871Z,4.42
2022-12-23T01:03:05.320Z,4.44
2022-12-23T01:05:39.752Z,4.45
2022-12-23T01:08:15.057Z,4.47
2022-12-23T01:10:48.851Z,4.48
2022-12-23T01:13:24.940Z,4.50
2022-12-23T01:16:03.310Z,4.52
2022-12-23T01:18:37.868Z,4.56
2022-12-23T01:21:14.832Z,4.57
2022-12-23T01:23:47.440Z,4.57
2022-12-23T01:26:20.438Z,4.58
2022-12-23T01:28:56.476Z,4.59
2022-12-23T01:31:30.374Z,4.60
2022-12-23T01:34:03.252Z,4.61
2022-12-23T01:36:36.288Z,4.62
2022-12-23T01:39:11.892Z,4.64
2022-12-23T01:42:05.676Z,4.65
2022-12-23T01:44:55.846Z,4.64
2022-12-23T01:47:36.472Z,4.66
2022-12-23T01:50:18.758Z,4.65
2022-12-23T01:53:06.939Z,4.62
2022-12-23T01:55:47.024Z,4.62
2022-12-23T01:58:24.343Z,4.63
2022-12-23T02:01:16.679Z,4.61
2022-12-23T02:03:52.903Z,4.59
2022-12-23T02:06:46.495Z,4.62
2022-12-23T02:09:21.343Z,4.61
2022-12-23T02:12:10.463Z,4.60
2022-12-23T02:15:18.265Z,4.61
2022-12-23T02:17:57.553Z,4.59
2022-12-23T02:21:05.857Z,4.59
2022-12-23T02:24:09.281Z,4.58
2022-12-23T02:27:03.820Z,4.57
2022-12-23T02:30:04.867Z,4.56
2022-12-23T02:32:51.835Z,4.52
2022-12-23T02:35:30.868Z,4.46
2022-12-23T02:38:14.588Z,4.40
2022-12-23T02:40:58.155Z,4.35
2022-12-23T02:43:42.047Z,4.32
2022-12-23T02:46:23.956Z,4.31
2022-12-23T02:49:04.788Z,4.29
2022-12-23T02:51:43.971Z,4.25
2022-12-23T02:54:20.061Z,4.22
2022-12-23T02:56:58.547Z,4.19
2022-12-23T02:59:38.847Z,4.16
2022-12-23T03:02:12.057Z,4.12
2022-12-23T03:04:47.182Z,4.10
2022-12-23T03:07:23.923Z,4.09
2022-12-23T03:10:05.532Z,4.07
2022-12-23T03:12:53.064Z,4.01
2022-12-23T03:15:37.115Z,3.96
2022-12-23T03:18:24.392Z,3.92
2022-12-23T03:21:04.299Z,3.86
2022-12-23T03:23:50.409Z,3.82
2022-12-23T03:26:33.656Z,3.79
2022-12-23T03:29:14.479Z,3.73
2022-12-23T03:31:48.870Z,3.70
2022-12-23T03:34:27.321Z,3.66
2022-12-23T03:37:04.889Z,3.62
2022-12-23T03:39:42.814Z,3.60
2022-12-23T03:42:22.951Z,3.57
2022-12-23T03:45:36.549Z,3.55
2022-12-23T03:47:57.908Z,3.53
2022-12-23T03:50:33.864Z,3.54
2022-12-23T03:53:11.669Z,3.53
2022-12-23T03:55:52.919Z,3.52
2022-12-23T03:58:34.848Z,3.52
2022-12-23T04:01:25.425Z,3.52
2022-12-23T04:04:01.003Z,3.51
2022-12-23T04:06:40.523Z,3.49
2022-12-23T04:09:21.680Z,3.46
2022-12-23T04:11:54.914Z,3.43
2022-12-23T04:14:27.527Z,3.40
2022-12-23T04:17:00.945Z,3.37
2022-12-23T04:19:38.027Z,3.34
2022-12-23T04:22:11.885Z,3.33
2022-12-23T04:24:47.904Z,3.33
2022-12-23T04:27:20.602Z,3.31
2022-12-23T04:29:53.292Z,3.31
2022-12-23T04:32:26.929Z,3.29
2022-12-23T04:34:59.481Z,3.29
2022-12-23T04:37:31.874Z,3.29
2022-12-23T04:40:21.298Z,3.31
2022-12-23T04:42:54.217Z,3.26
2022-12-23T04:45:26.687Z,3.25
2022-12-23T04:48:01.496Z,3.24
2022-12-23T04:50:33.895Z,3.22
2022-12-23T04:53:06.331Z,3.22
2022-12-23T04:55:44.933Z,3.23
2022-12-23T04:58:17.398Z,3.22
2022-12-23T05:00:49.895Z,3.22
2022-12-23T05:03:25.059Z,3.24
2022-12-23T05:05:57.565Z,3.26
2022-12-23T05:08:30.246Z,3.28
2022-12-23T05:11:02.697Z,3.31
2022-12-23T05:13:35.142Z,3.32
2022-12-23T05:16:08.888Z,3.34
2022-12-23T05:18:41.288Z,3.36
2022-12-23T05:21:16.364Z,3.36
2022-12-23T05:23:48.812Z,3.36
2022-12-23T05:26:21.270Z,3.38
2022-12-23T05:28:56.085Z,3.40
2022-12-23T05:31:28.647Z,3.40
2022-12-23T05:34:06.411Z,3.42
2022-12-23T05:36:39.831Z,3.44
2022-12-23T05:39:14.413Z,3.46
2022-12-23T05:41:47.119Z,3.48
2022-12-23T05:44:19.531Z,3.50
2022-12-23T05:46:54.903Z,3.51
2022-12-23T05:49:27.457Z,3.54
2022-12-23T05:52:00.023Z,3.57
2022-12-23T05:54:32.835Z,3.59
2022-12-23T05:57:07.363Z,3.61
2022-12-23T05:59:39.943Z,3.65
2022-12-23T06:02:12.685Z,3.68
2022-12-23T06:04:45.263Z,3.72
2022-12-23T06:07:18.110Z,3.76
2022-12-23T06:09:50.849Z,3.78
2022-12-23T06:12:23.394Z,3.81
2022-12-23T06:14:56.082Z,3.83
2022-12-23T06:17:28.597Z,3.87
2022-12-23T06:20:01.988Z,3.90
2022-12-23T06:22:34.649Z,3.91
2022-12-23T06:25:08.073Z,3.93
2022-12-23T06:27:40.640Z,3.95
2022-12-23T06:30:14.541Z,3.98
2022-12-23T06:32:47.131Z,4.00
2022-12-23T06:35:19.668Z,4.00
2022-12-23T06:37:53.830Z,4.01
2022-12-23T06:40:26.225Z,4.03
2022-12-23T06:42:58.689Z,4.06
2022-12-23T06:45:31.423Z,4.07
2022-12-23T06:48:03.860Z,4.09
2022-12-23T06:50:37.550Z,4.11
2022-12-23T06:53:10.400Z,4.12
2022-12-23T06:55:43.215Z,4.15
2022-12-23T06:58:19.586Z,4.18
2022-12-23T07:00:52.554Z,4.20
2022-12-23T07:03:27.919Z,4.20
2022-12-23T07:06:00.627Z,4.23
2022-12-23T07:08:33.064Z,4.25
2022-12-23T07:11:06.816Z,4.30
2022-12-23T07:13:44.070Z,4.34
2022-12-23T07:16:18.505Z,4.37
2022-12-23T07:18:54.660Z,4.42
2022-12-23T07:21:30.138Z,4.46
2022-12-23T07:24:06.126Z,4.50
2022-12-23T07:26:38.509Z,4.53
2022-12-23T07:29:12.285Z,4.55
2022-12-23T07:31:44.845Z,4.57
2022-12-23T07:34:17.464Z,4.59
2022-12-23T07:36:52.233Z,4.63
2022-12-23T07:39:27.556Z,4.63
2022-12-23T07:42:25.461Z,4.65
2022-12-23T07:44:56.429Z,4.69
2022-12-23T07:47:34.583Z,4.73
2022-12-23T07:50:08.241Z,4.77
2022-12-23T07:52:40.674Z,4.81
2022-12-23T07:55:13.267Z,4.84
2022-12-23T07:57:48.760Z,4.86
2022-12-23T08:00:22.367Z,4.90
2022-12-23T08:02:54.983Z,4.91
2022-12-23T08:05:27.668Z,4.92
2022-12-23T08:08:00.610Z,4.95
2022-12-23T08:10:33.032Z,4.99
2022-12-23T08:13:05.656Z,5.03
2022-12-23T08:15:40.471Z,5.06
2022-12-23T08:18:15.185Z,5.09
2022-12-23T08:20:54.566Z,5.15
2022-12-23T08:23:28.442Z,5.20
2022-12-23T08:26:06.669Z,5.26
2022-12-23T08:28:40.761Z,5.34
2022-12-23T08:31:16.189Z,5.41
2022-12-23T08:33:51.108Z,5.48
2022-12-23T08:36:26.368Z,5.56
2022-12-23T08:39:00.942Z,5.67
2022-12-23T08:41:39.360Z,5.83
2022-12-23T08:44:12.338Z,5.98
2022-12-23T08:46:45.132Z,6.08
2022-12-23T08:49:17.602Z,6.13
2022-12-23T08:51:50.444Z,6.14
2022-12-23T08:54:27.237Z,6.16
2022-12-23T08:57:00.158Z,6.16
2022-12-23T08:59:32.631Z,6.20
2022-12-23T09:02:05.444Z,6.22
2022-12-23T09:04:41.596Z,6.21
2022-12-23T09:07:14.065Z,6.16
2022-12-23T09:09:46.721Z,6.15
2022-12-23T09:12:22.302Z,6.14
2022-12-23T09:14:55.117Z,6.14
2022-12-23T09:17:28.288Z,6.14
2022-12-23T09:20:00.634Z,6.17
2022-12-23T09:22:37.285Z,6.21
2022-12-23T09:25:11.391Z,6.27
2022-12-23T09:27:46.308Z,6.29
2022-12-23T09:30:19.203Z,6.32
2022-12-23T09:32:52.059Z,6.32
2022-12-23T09:35:24.712Z,6.33
2022-12-23T09:37:57.383Z,6.33
2022-12-23T09:40:37.507Z,6.31
2022-12-23T09:43:22.278Z,6.28
2022-12-23T09:46:08.331Z,6.30
2022-12-23T09:48:48.534Z,6.33
2022-12-23T09:51:29.067Z,6.34
2022-12-23T09:54:07.926Z,6.37
2022-12-23T09:56:53.219Z,6.43
2022-12-23T09:59:47.778Z,6.47
2022-12-23T10:02:28.611Z,6.51
2022-12-23T10:05:19.126Z,6.52
2022-12-23T10:07:57.213Z,6.53
2022-12-23T10:10:37.564Z,6.51
2022-12-23T10:13:25.654Z,6.51
2022-12-23T10:16:03.591Z,6.51
2022-12-23T10:18:46.373Z,6.50
2022-12-23T10:21:25.690Z,6.48
2022-12-23T10:24:01.468Z,6.47
2022-12-23T10:26:39.517Z,6.45
2022-12-23T10:29:19.817Z,6.47
2022-12-23T10:32:00.445Z,6.48
2022-12-23T10:34:43.170Z,6.49
2022-12-23T10:37:23.906Z,6.50
2022-12-23T10:40:02.253Z,6.52
2022-12-23T10:42:40.719Z,6.53
2022-12-23T10:45:39.154Z,6.55
2022-12-23T10:48:28.793Z,6.55
2022-12-23T10:51:06.678Z,6.57
2022-12-23T10:53:48.421Z,6.60
2022-12-23T10:56:21.993Z,6.61
2022-12-23T10:58:58.724Z,6.65
2022-12-23T11:01:36.292Z,6.67
2022-12-23T11:04:15.293Z,6.69
2022-12-23T11:07:10.706Z,6.72
2022-12-23T11:09:46.857Z,6.72
2022-12-23T11:12:23.507Z,6.75
2022-12-23T11:14:58.087Z,6.79
2022-12-23T11:17:35.207Z,6.80
2022-12-23T11:20:21.779Z,6.82
2022-12-23T11:22:58.363Z,6.82
2022-12-23T11:25:37.036Z,6.82
2022-12-23T11:28:16.764Z,6.82
2022-12-23T11:30:57.890Z,6.81
2022-12-23T11:33:33.260Z,6.79
2022-12-23T11:36:10.433Z,6.79
2022-12-23T11:38:54.003Z,6.79
2022-12-23T11:41:29.810Z,6.81
2022-12-23T11:44:06.713Z,6.84
2022-12-23T11:46:39.114Z,6.87
2022-12-23T11:49:20.846Z,6.88
2022-12-23T11:52:11.961Z,6.85
2022-12-23T11:54:54.365Z,6.83
2022-12-23T11:57:34.147Z,6.83
2022-12-23T12:00:20.593Z,6.84
2022-12-23T12:02:56.327Z,6.83
2022-12-23T12:05:34.181Z,6.80
2022-12-23T12:08:11.575Z,6.79
2022-12-23T12:10:45.429Z,6.81
2022-12-23T12:13:29.953Z,6.84
2022-12-23T12:16:17.710Z,6.84
2022-12-23T12:18:55.711Z,6.84
2022-12-23T12:21:33.023Z,6.85
2022-12-23T12:24:19.020Z,6.89
2022-12-23T12:26:55.659Z,6.93
2022-12-23T12:29:34.457Z,6.94
2022-12-23T12:32:13.353Z,6.92
2022-12-23T12:34:54.734Z,6.85
2022-12-23T12:37:39.644Z,6.80
2022-12-23T12:40:26.121Z,6.77
2022-12-23T12:43:05.009Z,6.78
2022-12-23T12:45:44.142Z,6.78
2022-12-23T12:48:36.128Z,6.80
2022-12-23T12:51:26.019Z,6.80
2022-12-23T12:54:06.641Z,6.80
2022-12-23T12:56:45.980Z,6.80
2022-12-23T12:59:22.405Z,6.79
2022-12-23T13:02:08.759Z,6.80
2022-12-23T13:05:05.420Z,6.78
2022-12-23T13:07:48.343Z,6.73
2022-12-23T13:10:31.040Z,6.69
2022-12-23T13:13:17.315Z,6.69
2022-12-23T13:15:55.935Z,6.70
2022-12-23T13:18:38.238Z,6.74
2022-12-23T13:21:17.293Z,6.84
2022-12-23T13:24:04.056Z,6.92
2022-12-23T13:26:41.022Z,6.95
2022-12-23T13:29:41.158Z,6.94
2022-12-23T13:32:26.010Z,6.94
2022-12-23T13:35:13.902Z,6.94
2022-12-23T13:37:52.484Z,6.94
2022-12-23T13:40:38.385Z,6.93
2022-12-23T13:43:17.421Z,6.90
2022-12-23T13:45:51.690Z,6.87
2022-12-23T13:48:44.531Z,6.85
2022-12-23T13:51:25.827Z,6.81
2022-12-23T13:54:05.689Z,6.77
2022-12-23T13:56:44.620Z,6.73
2022-12-23T13:59:18.483Z,6.69
2022-12-23T14:01:52.911Z,6.68
2022-12-23T14:04:57.727Z,6.64
2022-12-23T14:07:33.304Z,6.61
2022-12-23T14:10:21.754Z,6.60
2022-12-23T14:13:00.229Z,6.58
2022-12-23T14:15:52.393Z,6.54
2022-12-23T14:18:43.049Z,6.52
2022-12-23T14:21:24.625Z,6.49
2022-12-23T14:24:15.862Z,6.47
2022-12-23T14:27:15.836Z,6.44
2022-12-23T14:30:06.556Z,6.42
2022-12-23T14:32:47.467Z,6.41
2022-12-23T14:35:48.961Z,6.42
2022-12-23T14:38:27.475Z,6.37
2022-12-23T14:41:17.337Z,6.36
2022-12-23T14:44:18.857Z,6.36
2022-12-23T14:46:59.558Z,6.37
2022-12-23T14:49:44.570Z,6.38
2022-12-23T14:52:48.232Z,6.36
2022-12-23T14:55:45.233Z,6.32
2022-12-23T14:58:35.594Z,6.28
2022-12-23T15:01:14.258Z,6.26
2022-12-23T15:03:55.947Z,6.27
2022-12-23T15:06:37.819Z,6.29
2022-12-23T15:09:20.001Z,6.31
2022-12-23T15:11:53.203Z,6.31
2022-12-23T15:14:35.094Z,6.31
2022-12-23T15:17:26.966Z,6.29
2022-12-23T15:20:15.730Z,6.27
2022-12-23T15:22:49.082Z,6.25
2022-12-23T15:25:30.115Z,6.22
2022-12-23T15:28:04.429Z,6.16
2022-12-23T15:30:47.428Z,6.12
2022-12-23T15:34:00.518Z,6.14
2022-12-23T15:36:23.328Z,6.16
2022-12-23T15:38:55.891Z,6.17
2022-12-23T15:41:28.245Z,6.20
2022-12-23T15:44:01.877Z,6.22
2022-12-23T15:46:35.539Z,6.24
2022-12-23T15:49:08.437Z,6.25
2022-12-23T15:54:45.765Z,6.23
2022-12-23T15:57:21.495Z,6.24
2022-12-23T15:59:54.616Z,6.23
2022-12-23T16:05:31.129Z,6.22
2022-12-23T16:08:29.083Z,6.20
2022-12-23T16:11:14.459Z,6.20
2022-12-23T16:14:01.832Z,6.22
2022-12-23T16:16:39.187Z,6.24
2022-12-23T16:19:44.109Z,6.23
2022-12-23T16:22:24.002Z,6.22
2022-12-23T16:25:03.010Z,6.18
2022-12-23T16:27:42.307Z,6.15
2022-12-23T16:30:19.379Z,6.14
2022-12-23T16:32:55.307Z,6.15
2022-12-23T16:35:35.187Z,6.16
2022-12-23T16:38:19.074Z,6.18
2022-12-23T16:40:53.393Z,6.19
2022-12-23T16:44:02.267Z,6.20
2022-12-23T16:46:38.395Z,6.17
2022-12-23T16:49:17.389Z,6.17
2022-12-23T16:51:50.186Z,6.17
2022-12-23T16:54:23.196Z,6.19
2022-12-23T16:56:55.681Z,6.17
2022-12-23T16:59:28.159Z,6.16
2022-12-23T17:02:03.824Z,6.15
2022-12-23T17:04:36.504Z,6.13
2022-12-23T17:07:12.958Z,6.13
2022-12-23T17:09:45.527Z,6.14
2022-12-23T17:12:18.049Z,6.14
2022-12-23T17:14:50.512Z,6.14
2022-12-23T17:17:25.947Z,6.14
2022-12-23T17:19:59.204Z,6.14
2022-12-23T17:22:35.038Z,6.14
2022-12-23T17:25:08.889Z,6.13
2022-12-23T17:27:41.723Z,6.13
2022-12-23T17:30:20.826Z,6.11
2022-12-23T17:32:56.786Z,6.07
2022-12-23T17:35:29.334Z,6.06
2022-12-23T17:38:10.625Z,6.05
2022-12-23T17:40:46.785Z,6.06
2022-12-23T17:43:20.028Z,6.05
2022-12-23T17:45:58.860Z,6.03
2022-12-23T17:48:32.244Z,6.03
2022-12-23T17:51:15.177Z,6.02
2022-12-23T17:53:53.169Z,6.01
2022-12-23T17:56:38.025Z,6.00
2022-12-23T17:59:12.013Z,6.01
2022-12-23T18:01:49.042Z,6.01
2022-12-23T18:04:24.455Z,5.97
2022-12-23T18:06:58.566Z,5.96
2022-12-23T18:09:31.082Z,5.96
2022-12-23T18:12:03.554Z,5.96
2022-12-23T18:14:36.073Z,5.96
2022-12-23T18:17:11.468Z,5.94
2022-12-23T18:19:43.936Z,5.92
2022-12-23T18:22:21.043Z,5.91
2022-12-23T18:24:59.252Z,5.90
2022-12-23T18:27:32.035Z,5.91
2022-12-23T18:30:04.925Z,5.92
2022-12-23T18:32:40.183Z,5.93
2022-12-23T18:35:28.970Z,5.94
2022-12-23T18:38:02.502Z,5.93
2022-12-23T18:40:37.528Z,5.91
2022-12-23T18:43:18.267Z,5.88
2022-12-23T18:45:53.197Z,5.84
2022-12-23T18:48:26.390Z,5.82
2022-12-23T18:50:58.709Z,5.81
2022-12-23T18:53:31.144Z,5.78
2022-12-23T18:56:05.903Z,5.75
2022-12-23T18:58:38.517Z,5.76
2022-12-23T19:01:15.473Z,5.76
2022-12-23T19:03:48.555Z,5.75
2022-12-23T19:06:21.637Z,5.73
2022-12-23T19:08:54.062Z,5.73
2022-12-23T19:11:26.684Z,5.74
2022-12-23T19:13:59.738Z,5.72
2022-12-23T19:16:32.291Z,5.68
2022-12-23T19:19:06.278Z,5.66
2022-12-23T19:21:38.674Z,5.64
2022-12-23T19:24:14.163Z,5.61
2022-12-23T19:26:46.569Z,5.59
2022-12-23T19:29:19.020Z,5.56
2022-12-23T19:31:53.551Z,5.54
2022-12-23T19:34:26.613Z,5.53
2022-12-23T19:36:59.120Z,5.54
2022-12-23T19:39:31.576Z,5.56
2022-12-23T19:42:04.229Z,5.56
2022-12-23T19:44:39.915Z,5.55
2022-12-23T19:47:12.431Z,5.52
2022-12-23T19:49:45.089Z,5.52
2022-12-23T19:52:17.603Z,5.50
2022-12-23T19:54:53.392Z,5.49
2022-12-23T19:57:25.967Z,5.46
2022-12-23T20:00:02.767Z,5.43
2022-12-23T20:02:47.270Z,5.42
2022-12-23T20:05:19.962Z,5.40
2022-12-23T20:07:52.419Z,5.40
2022-12-23T20:10:26.842Z,5.41
2022-12-23T20:12:59.220Z,5.41
2022-12-23T20:15:31.735Z,5.40
2022-12-23T20:18:04.256Z,5.38
2022-12-23T20:20:44.528Z,5.36
2022-12-23T20:23:17.096Z,5.33
2022-12-23T20:25:49.590Z,5.32
2022-12-23T20:28:22.317Z,5.33
2022-12-23T20:31:04.609Z,5.33
2022-12-23T20:33:37.667Z,5.34
2022-12-23T20:36:14.409Z,5.33
2022-12-23T20:38:48.089Z,5.32
2022-12-23T20:41:22.908Z,5.32
2022-12-23T20:46:48.439Z,5.32
2022-12-23T20:49:21.677Z,5.33
2022-12-23T20:51:54.140Z,5.34
2022-12-23T20:54:32.822Z,5.32
2022-12-23T20:57:07.760Z,5.32
2022-12-23T20:59:40.613Z,5.30
2022-12-23T21:02:15.681Z,5.28
2022-12-23T21:04:48.563Z,5.25
2022-12-23T21:07:23.442Z,5.27
2022-12-23T21:09:55.873Z,5.27
2022-12-23T21:12:31.138Z,5.25
2022-12-23T21:15:04.184Z,5.21
2022-12-23T21:17:41.201Z,5.22
2022-12-23T21:20:14.364Z,5.21
2022-12-23T21:22:49.463Z,5.20
2022-12-23T21:25:21.898Z,5.22
2022-12-23T21:27:55.424Z,5.21
2022-12-23T21:30:31.409Z,5.23
2022-12-23T21:33:07.377Z,5.25
2022-12-23T21:35:50.200Z,5.27
2022-12-23T21:38:22.822Z,5.30
2022-12-23T21:41:01.981Z,5.31
2022-12-23T21:43:37.368Z,5.33
2022-12-23T21:46:13.617Z,5.34
2022-12-23T21:48:46.347Z,5.35
2022-12-23T21:51:24.313Z,5.35
2022-12-23T21:54:00.547Z,5.36
2022-12-23T21:56:38.495Z,5.36
2022-12-23T21:59:14.732Z,5.36
2022-12-23T22:01:47.847Z,5.37
2022-12-23T22:04:22.803Z,5.37
2022-12-23T22:06:55.223Z,5.35
2022-12-23T22:09:28.119Z,5.37
2022-12-23T22:12:05.637Z,5.36
2022-12-23T22:14:40.707Z,5.34
2022-12-23T22:17:14.329Z,5.34
2022-12-23T22:19:46.694Z,5.34
2022-12-23T22:22:19.133Z,5.35
2022-12-23T22:24:51.625Z,5.37
2022-12-23T22:27:25.913Z,5.39
2022-12-23T22:29:58.406Z,5.42
2022-12-23T22:32:30.892Z,5.40
2022-12-23T22:35:04.671Z,5.40
2022-12-23T22:37:37.291Z,5.41
2022-12-23T22:40:13.739Z,5.43
2022-12-23T22:42:46.001Z,5.44
2022-12-23T22:45:20.356Z,5.44
2022-12-23T22:47:53.772Z,5.46
2022-12-23T22:50:26.404Z,5.46
2022-12-23T22:52:58.789Z,5.46
2022-12-23T22:55:31.186Z,5.47
2022-12-23T22:58:05.504Z,5.45
2022-12-23T23:00:38.419Z,5.44
2022-12-23T23:03:14.587Z,5.44
2022-12-23T23:05:56.016Z,5.46
2022-12-23T23:08:28.881Z,5.46
2022-12-23T23:11:03.999Z,5.46
2022-12-23T23:13:37.683Z,5.45
2022-12-23T23:16:12.751Z,5.45
2022-12-23T23:18:48.980Z,5.44
2022-12-23T23:21:22.573Z,5.40
2022-12-23T23:23:57.982Z,5.40
2022-12-23T23:26:30.399Z,5.39
2022-12-23T23:29:02.952Z,5.41
2022-12-23T23:31:43.995Z,5.44
2022-12-23T23:34:19.945Z,5.45
2022-12-23T23:36:57.947Z,5.47
2022-12-23T23:39:30.382Z,5.48
2022-12-23T23:42:05.347Z,5.50
2022-12-23T23:44:37.834Z,5.50
2022-12-23T23:47:13.155Z,5.50
2022-12-23T23:49:46.412Z,5.49
2022-12-23T23:52:18.796Z,5.50
2022-12-23T23:54:51.198Z,5.49
2022-12-23T23:57:23.824Z,5.47
2022-12-23T23:59:56.748Z,5.47
